AFR302 LFPG-KSAN
Flight info
| Callsign | AFR302 |
|---|---|
| Flight time | N/A |
| Altitude | 36000 |
| Route | ELCOB UT300 SENLO DCT JSY DCT LIZAD DCT LESLU DCT LODLA DCT NEBIN/M085F370 DCT 54N020W 54N030W 5330N04000W 52N050W DCT TUDEP/N0491F380 DCT HULTN DCT RBV Q430 SAAME/N0483F400 Q430 AIR DCT FYLLS DCT WLDBL DCT GOSSL DCT CIM DCT INW DCT PKE TOPGN2 |
| Aircraft | A359/H-SDE2E3GHIJ3J4J5LM1ORWXY/LB1D1 |
Departure
| Time | N/A |
|---|---|
| Airport | Charles de Gaulle International Airport (LFPG) |
Arrival
| Time | 2026-04-22 16:51 |
|---|---|
| Airport | San Diego International Airport (KSAN) |
| Time | Latitude | Longitude | Altitude | Speed | Heading |
|---|---|---|---|---|---|
| 2026-04-22 15:08 | 36.61736 | -104.44073 | 36061 ft | 452 kts | 248° |
| 2026-04-22 15:08 | 36.60668 | -104.47755 | 36055 ft | 452 kts | 248° |
| 2026-04-22 15:08 | 36.59596 | -104.51445 | 36156 ft | 453 kts | 248° |
| 2026-04-22 15:08 | 36.58539 | -104.55080 | 36492 ft | 451 kts | 248° |
| 2026-04-22 15:09 | 36.57474 | -104.58741 | 36857 ft | 449 kts | 248° |
| 2026-04-22 15:09 | 36.56411 | -104.62387 | 37175 ft | 447 kts | 248° |
| 2026-04-22 15:09 | 36.55350 | -104.66024 | 37393 ft | 446 kts | 248° |
| 2026-04-22 15:09 | 36.54290 | -104.69648 | 37726 ft | 445 kts | 248° |
| 2026-04-22 15:10 | 36.53235 | -104.73253 | 38038 ft | 443 kts | 248° |
| 2026-04-22 15:10 | 36.52180 | -104.76853 | 38327 ft | 442 kts | 248° |
| 2026-04-22 15:10 | 36.51124 | -104.80452 | 38614 ft | 441 kts | 248° |
| 2026-04-22 15:10 | 36.50072 | -104.84033 | 38832 ft | 440 kts | 248° |
| 2026-04-22 15:11 | 36.49103 | -104.87647 | 38994 ft | 442 kts | 252° |
| 2026-04-22 15:11 | 36.48266 | -104.91322 | 39153 ft | 442 kts | 252° |
| 2026-04-22 15:11 | 36.47456 | -104.95016 | 39302 ft | 444 kts | 253° |
| 2026-04-22 15:11 | 36.46659 | -104.98727 | 39433 ft | 445 kts | 253° |
| 2026-04-22 15:12 | 36.45878 | -105.02399 | 39776 ft | 444 kts | 253° |
| 2026-04-22 15:12 | 36.45089 | -105.06107 | 39980 ft | 444 kts | 253° |
| 2026-04-22 15:12 | 36.44300 | -105.09813 | 40136 ft | 445 kts | 253° |
| 2026-04-22 15:12 | 36.43505 | -105.13532 | 40210 ft | 445 kts | 253° |
| 2026-04-22 15:13 | 36.41907 | -105.20955 | 40252 ft | 445 kts | 253° |
| 2026-04-22 15:13 | 36.40301 | -105.28375 | 40242 ft | 445 kts | 253° |
| 2026-04-22 15:14 | 36.38704 | -105.35733 | 40241 ft | 443 kts | 253° |
| 2026-04-22 15:14 | 36.37098 | -105.43104 | 40215 ft | 442 kts | 253° |
| 2026-04-22 15:15 | 36.35489 | -105.50470 | 40156 ft | 442 kts | 253° |
| 2026-04-22 15:15 | 36.33876 | -105.57831 | 40094 ft | 442 kts | 253° |
| 2026-04-22 15:16 | 36.32258 | -105.65193 | 40035 ft | 442 kts | 253° |
| 2026-04-22 15:16 | 36.30630 | -105.72573 | 39965 ft | 444 kts | 253° |
| 2026-04-22 15:17 | 36.28995 | -105.79963 | 39968 ft | 445 kts | 253° |
| 2026-04-22 15:17 | 36.27354 | -105.87355 | 39964 ft | 445 kts | 253° |
| 2026-04-22 15:18 | 36.25708 | -105.94749 | 39961 ft | 445 kts | 253° |
| 2026-04-22 15:18 | 36.24057 | -106.02137 | 39949 ft | 445 kts | 253° |
| 2026-04-22 15:19 | 36.22400 | -106.09532 | 39960 ft | 446 kts | 253° |
| 2026-04-22 15:19 | 36.20748 | -106.16882 | 39971 ft | 446 kts | 253° |
| 2026-04-22 15:20 | 36.19077 | -106.24291 | 40009 ft | 446 kts | 253° |
| 2026-04-22 15:20 | 36.17687 | -106.30433 | 40005 ft | 446 kts | 253° |
| 2026-04-22 15:21 | 36.16012 | -106.37816 | 40034 ft | 445 kts | 254° |
| 2026-04-22 15:21 | 36.14337 | -106.45179 | 40020 ft | 444 kts | 254° |
| 2026-04-22 15:22 | 36.12658 | -106.52540 | 40012 ft | 443 kts | 254° |
| 2026-04-22 15:22 | 36.10989 | -106.59827 | 39989 ft | 443 kts | 253° |
| 2026-04-22 15:23 | 36.09305 | -106.67161 | 39996 ft | 443 kts | 253° |
| 2026-04-22 15:23 | 36.07611 | -106.74512 | 39996 ft | 444 kts | 254° |
| 2026-04-22 15:24 | 36.05911 | -106.81870 | 40008 ft | 445 kts | 254° |
| 2026-04-22 15:24 | 36.04213 | -106.89197 | 40009 ft | 445 kts | 254° |
| 2026-04-22 15:25 | 36.02500 | -106.96562 | 40012 ft | 445 kts | 254° |
| 2026-04-22 15:25 | 36.00785 | -107.03915 | 40014 ft | 445 kts | 254° |
| 2026-04-22 15:26 | 35.99071 | -107.11237 | 40007 ft | 439 kts | 255° |
| 2026-04-22 15:26 | 35.97378 | -107.18453 | 40012 ft | 436 kts | 255° |
| 2026-04-22 15:27 | 35.95689 | -107.25634 | 40011 ft | 436 kts | 255° |
| 2026-04-22 15:27 | 35.94004 | -107.32774 | 40008 ft | 436 kts | 255° |
| 2026-04-22 15:28 | 35.92304 | -107.39958 | 40025 ft | 436 kts | 255° |
| 2026-04-22 15:28 | 35.90607 | -107.47102 | 39992 ft | 430 kts | 255° |
| 2026-04-22 15:29 | 35.88923 | -107.54172 | 39995 ft | 429 kts | 255° |
| 2026-04-22 15:30 | 35.86395 | -107.64754 | 39976 ft | 429 kts | 255° |
| 2026-04-22 15:30 | 35.84717 | -107.71755 | 39976 ft | 429 kts | 255° |
| 2026-04-22 15:31 | 35.83023 | -107.78795 | 39963 ft | 426 kts | 256° |
| 2026-04-22 15:31 | 35.81339 | -107.85774 | 39962 ft | 424 kts | 256° |
| 2026-04-22 15:32 | 35.79657 | -107.92730 | 39947 ft | 424 kts | 256° |
| 2026-04-22 15:32 | 35.77970 | -107.99690 | 39947 ft | 423 kts | 256° |
| 2026-04-22 15:33 | 35.76280 | -108.06639 | 39932 ft | 423 kts | 256° |
| 2026-04-22 15:33 | 35.74587 | -108.13580 | 39934 ft | 423 kts | 255° |
| 2026-04-22 15:34 | 35.72890 | -108.20518 | 39917 ft | 423 kts | 255° |
| 2026-04-22 15:34 | 35.71189 | -108.27455 | 39918 ft | 423 kts | 255° |
| 2026-04-22 15:35 | 35.69484 | -108.34389 | 39917 ft | 423 kts | 255° |
| 2026-04-22 15:35 | 35.67786 | -108.41275 | 39917 ft | 423 kts | 255° |
| 2026-04-22 15:36 | 35.66073 | -108.48198 | 39904 ft | 422 kts | 256° |
| 2026-04-22 15:36 | 35.64364 | -108.55090 | 39905 ft | 421 kts | 256° |
| 2026-04-22 15:37 | 35.62653 | -108.61972 | 39893 ft | 421 kts | 256° |
| 2026-04-22 15:37 | 35.60939 | -108.68848 | 39893 ft | 420 kts | 256° |
| 2026-04-22 15:38 | 35.59220 | -108.75724 | 40201 ft | 421 kts | 256° |
| 2026-04-22 15:38 | 35.56653 | -108.85957 | 40198 ft | 418 kts | 256° |
| 2026-04-22 15:39 | 35.54926 | -108.92820 | 40169 ft | 417 kts | 256° |
| 2026-04-22 15:39 | 35.53220 | -108.99582 | 40154 ft | 417 kts | 256° |
| 2026-04-22 15:40 | 35.51496 | -109.06396 | 40149 ft | 417 kts | 256° |
| 2026-04-22 15:40 | 35.49770 | -109.13198 | 40128 ft | 417 kts | 256° |
| 2026-04-22 15:41 | 35.48047 | -109.19972 | 40093 ft | 415 kts | 256° |
| 2026-04-22 15:41 | 35.46325 | -109.26724 | 40050 ft | 414 kts | 256° |
| 2026-04-22 15:42 | 35.44602 | -109.33466 | 40003 ft | 414 kts | 256° |
| 2026-04-22 15:42 | 35.42872 | -109.40214 | 39965 ft | 414 kts | 256° |
| 2026-04-22 15:43 | 35.41151 | -109.46913 | 39956 ft | 414 kts | 256° |
| 2026-04-22 15:43 | 35.39417 | -109.53637 | 39972 ft | 413 kts | 256° |
| 2026-04-22 15:44 | 35.37686 | -109.60339 | 39969 ft | 413 kts | 256° |
| 2026-04-22 15:44 | 35.35949 | -109.67049 | 39975 ft | 412 kts | 256° |
| 2026-04-22 15:45 | 35.34209 | -109.73749 | 39975 ft | 412 kts | 256° |
| 2026-04-22 15:45 | 35.32467 | -109.80441 | 39969 ft | 413 kts | 256° |
| 2026-04-22 15:46 | 35.30730 | -109.87095 | 39980 ft | 412 kts | 256° |
| 2026-04-22 15:46 | 35.28980 | -109.93783 | 39985 ft | 412 kts | 256° |
| 2026-04-22 15:47 | 35.27230 | -110.00455 | 39982 ft | 412 kts | 256° |
| 2026-04-22 15:47 | 35.25473 | -110.07137 | 39987 ft | 412 kts | 256° |
| 2026-04-22 15:48 | 35.23716 | -110.13805 | 39988 ft | 412 kts | 256° |
| 2026-04-22 15:48 | 35.21956 | -110.20461 | 39990 ft | 410 kts | 256° |
| 2026-04-22 15:49 | 35.20209 | -110.27052 | 39990 ft | 410 kts | 256° |
| 2026-04-22 15:49 | 35.18448 | -110.33685 | 39994 ft | 410 kts | 256° |
| 2026-04-22 15:50 | 35.16681 | -110.40323 | 39992 ft | 410 kts | 256° |
| 2026-04-22 15:50 | 35.14912 | -110.46949 | 39992 ft | 410 kts | 256° |
| 2026-04-22 15:51 | 35.13142 | -110.53562 | 39993 ft | 408 kts | 255° |
| 2026-04-22 15:51 | 35.11374 | -110.60151 | 39993 ft | 408 kts | 255° |
| 2026-04-22 15:52 | 35.10492 | -110.63436 | 40134 ft | 408 kts | 255° |
| 2026-04-22 15:52 | 35.09617 | -110.66688 | 40146 ft | 408 kts | 255° |
| 2026-04-22 15:52 | 35.07844 | -110.73267 | 40147 ft | 408 kts | 255° |
| 2026-04-22 15:53 | 35.06066 | -110.79848 | 40145 ft | 408 kts | 255° |
| 2026-04-22 15:53 | 35.04508 | -110.86490 | 40133 ft | 407 kts | 257° |
| 2026-04-22 15:54 | 35.03013 | -110.93168 | 40104 ft | 408 kts | 257° |
| 2026-04-22 15:54 | 35.01489 | -110.99847 | 40071 ft | 408 kts | 257° |
| 2026-04-22 15:55 | 34.99955 | -111.06519 | 40026 ft | 409 kts | 257° |
| 2026-04-22 15:55 | 34.98414 | -111.13190 | 40003 ft | 409 kts | 257° |
| 2026-04-22 15:56 | 34.96877 | -111.19824 | 39998 ft | 411 kts | 257° |
| 2026-04-22 15:56 | 34.95316 | -111.26541 | 39998 ft | 412 kts | 257° |
| 2026-04-22 15:57 | 34.93748 | -111.33270 | 40009 ft | 412 kts | 257° |
| 2026-04-22 15:57 | 34.92176 | -111.39996 | 40004 ft | 412 kts | 257° |
| 2026-04-22 15:58 | 34.90597 | -111.46731 | 40014 ft | 412 kts | 257° |
| 2026-04-22 15:58 | 34.89030 | -111.53404 | 40018 ft | 413 kts | 257° |
| 2026-04-22 15:59 | 34.88238 | -111.56764 | 40120 ft | 412 kts | 257° |
| 2026-04-22 15:59 | 34.87446 | -111.60124 | 40137 ft | 412 kts | 257° |
| 2026-04-22 15:59 | 34.85859 | -111.66844 | 40164 ft | 412 kts | 257° |
| 2026-04-22 16:00 | 34.84271 | -111.73552 | 40175 ft | 412 kts | 257° |
| 2026-04-22 16:00 | 34.82675 | -111.80269 | 40181 ft | 412 kts | 257° |
| 2026-04-22 16:01 | 34.81089 | -111.86922 | 40163 ft | 411 kts | 257° |
| 2026-04-22 16:01 | 34.79492 | -111.93611 | 40141 ft | 411 kts | 257° |
| 2026-04-22 16:02 | 34.77892 | -112.00290 | 40101 ft | 411 kts | 256° |
| 2026-04-22 16:02 | 34.76287 | -112.06976 | 40064 ft | 411 kts | 256° |
| 2026-04-22 16:03 | 34.74689 | -112.13614 | 40084 ft | 411 kts | 256° |
| 2026-04-22 16:03 | 34.73082 | -112.20272 | 40097 ft | 408 kts | 256° |
| 2026-04-22 16:04 | 34.71481 | -112.26888 | 40133 ft | 408 kts | 256° |
| 2026-04-22 16:04 | 34.69877 | -112.33500 | 40165 ft | 408 kts | 256° |
| 2026-04-22 16:05 | 34.68268 | -112.40113 | 40165 ft | 408 kts | 256° |
| 2026-04-22 16:05 | 34.66656 | -112.46722 | 40166 ft | 408 kts | 256° |
| 2026-04-22 16:06 | 34.65315 | -112.52206 | 39991 ft | 407 kts | 256° |
| 2026-04-22 16:06 | 34.63707 | -112.58771 | 39995 ft | 407 kts | 256° |
| 2026-04-22 16:07 | 34.62088 | -112.65360 | 39993 ft | 407 kts | 256° |
| 2026-04-22 16:07 | 34.60467 | -112.71942 | 40000 ft | 407 kts | 256° |
| 2026-04-22 16:08 | 34.58837 | -112.78538 | 39993 ft | 407 kts | 256° |
| 2026-04-22 16:08 | 34.57207 | -112.85124 | 40003 ft | 408 kts | 256° |
| 2026-04-22 16:09 | 34.55580 | -112.91678 | 40003 ft | 408 kts | 256° |
| 2026-04-22 16:09 | 34.53940 | -112.98267 | 40003 ft | 408 kts | 256° |
| 2026-04-22 16:10 | 34.52298 | -113.04849 | 40005 ft | 408 kts | 256° |
| 2026-04-22 16:10 | 34.50650 | -113.11435 | 40018 ft | 408 kts | 256° |
| 2026-04-22 16:11 | 34.49000 | -113.18014 | 40006 ft | 406 kts | 256° |
| 2026-04-22 16:11 | 34.47354 | -113.24563 | 40005 ft | 406 kts | 256° |
| 2026-04-22 16:12 | 34.45715 | -113.31065 | 40006 ft | 406 kts | 256° |
| 2026-04-22 16:12 | 34.44061 | -113.37612 | 40006 ft | 406 kts | 256° |
| 2026-04-22 16:13 | 34.42404 | -113.44151 | 40002 ft | 406 kts | 256° |
| 2026-04-22 16:13 | 34.40747 | -113.50676 | 40008 ft | 405 kts | 256° |
| 2026-04-22 16:14 | 34.39089 | -113.57193 | 40006 ft | 405 kts | 256° |
| 2026-04-22 16:14 | 34.37427 | -113.63704 | 40006 ft | 404 kts | 255° |
| 2026-04-22 16:15 | 34.35759 | -113.70222 | 40013 ft | 406 kts | 256° |
| 2026-04-22 16:15 | 34.34084 | -113.76755 | 40009 ft | 406 kts | 256° |
| 2026-04-22 16:16 | 34.32405 | -113.83287 | 40015 ft | 406 kts | 256° |
| 2026-04-22 16:16 | 34.30734 | -113.89770 | 40021 ft | 406 kts | 256° |
| 2026-04-22 16:17 | 34.29048 | -113.96296 | 40015 ft | 407 kts | 256° |
| 2026-04-22 16:17 | 34.27358 | -114.02823 | 40020 ft | 407 kts | 256° |
| 2026-04-22 16:18 | 34.25664 | -114.09347 | 40014 ft | 407 kts | 256° |
| 2026-04-22 16:18 | 34.23965 | -114.15872 | 40019 ft | 407 kts | 256° |
| 2026-04-22 16:19 | 34.22262 | -114.22400 | 40019 ft | 406 kts | 256° |
| 2026-04-22 16:19 | 34.20557 | -114.28917 | 40028 ft | 407 kts | 256° |
| 2026-04-22 16:20 | 34.18861 | -114.35390 | 40027 ft | 407 kts | 256° |
| 2026-04-22 16:20 | 34.17150 | -114.41902 | 40032 ft | 406 kts | 256° |
| 2026-04-22 16:21 | 34.15438 | -114.48399 | 40031 ft | 406 kts | 256° |
| 2026-04-22 16:21 | 34.13725 | -114.54885 | 40043 ft | 406 kts | 256° |
| 2026-04-22 16:22 | 34.11148 | -114.64619 | 40051 ft | 406 kts | 256° |
| 2026-04-22 16:23 | 34.07681 | -114.73956 | 40050 ft | 411 kts | 247° |
| 2026-04-22 16:23 | 34.04982 | -114.80040 | 40056 ft | 411 kts | 247° |
| 2026-04-22 16:24 | 34.00938 | -114.89166 | 40058 ft | 411 kts | 247° |
| 2026-04-22 16:25 | 33.98244 | -114.95240 | 40060 ft | 411 kts | 247° |
| 2026-04-22 16:25 | 33.94189 | -115.04362 | 40066 ft | 411 kts | 246° |
| 2026-04-22 16:26 | 33.91486 | -115.10385 | 40068 ft | 411 kts | 246° |
| 2026-04-22 16:26 | 33.88768 | -115.16450 | 40075 ft | 411 kts | 246° |
| 2026-04-22 16:27 | 33.86048 | -115.22497 | 40073 ft | 411 kts | 246° |
| 2026-04-22 16:27 | 33.83323 | -115.28549 | 40077 ft | 411 kts | 246° |
| 2026-04-22 16:28 | 33.80598 | -115.34591 | 40076 ft | 411 kts | 246° |
| 2026-04-22 16:28 | 33.77879 | -115.40611 | 39698 ft | 408 kts | 247° |
| 2026-04-22 16:29 | 33.76527 | -115.43599 | 39135 ft | 406 kts | 247° |
| 2026-04-22 16:29 | 33.75180 | -115.46576 | 38559 ft | 405 kts | 247° |
| 2026-04-22 16:29 | 33.73854 | -115.49504 | 37914 ft | 402 kts | 247° |
| 2026-04-22 16:29 | 33.72517 | -115.52454 | 37274 ft | 401 kts | 246° |
| 2026-04-22 16:30 | 33.71622 | -115.54447 | 36844 ft | 400 kts | 246° |
| 2026-04-22 16:30 | 33.69900 | -115.58368 | 35945 ft | 401 kts | 246° |
| 2026-04-22 16:30 | 33.68600 | -115.61337 | 35246 ft | 402 kts | 245° |
| 2026-04-22 16:30 | 33.67293 | -115.64313 | 34486 ft | 405 kts | 245° |
| 2026-04-22 16:31 | 33.65965 | -115.67329 | 33602 ft | 410 kts | 244° |
| 2026-04-22 16:31 | 33.64625 | -115.70362 | 32729 ft | 413 kts | 244° |
| 2026-04-22 16:31 | 33.63276 | -115.73415 | 31864 ft | 416 kts | 244° |
| 2026-04-22 16:31 | 33.61846 | -115.76456 | 30968 ft | 421 kts | 240° |
| 2026-04-22 16:32 | 33.60208 | -115.79408 | 30016 ft | 426 kts | 239° |
| 2026-04-22 16:32 | 33.58513 | -115.82346 | 28945 ft | 431 kts | 238° |
| 2026-04-22 16:32 | 33.56803 | -115.85296 | 28225 ft | 428 kts | 238° |
| 2026-04-22 16:32 | 33.55130 | -115.88182 | 27556 ft | 425 kts | 238° |
| 2026-04-22 16:33 | 33.53450 | -115.91081 | 26873 ft | 422 kts | 238° |
| 2026-04-22 16:33 | 33.51784 | -115.93959 | 26174 ft | 419 kts | 238° |
| 2026-04-22 16:33 | 33.50127 | -115.96819 | 25624 ft | 418 kts | 238° |
| 2026-04-22 16:33 | 33.48460 | -115.99698 | 25124 ft | 421 kts | 238° |
| 2026-04-22 16:34 | 33.46786 | -116.02586 | 24604 ft | 421 kts | 238° |
| 2026-04-22 16:34 | 33.45121 | -116.05454 | 24092 ft | 418 kts | 238° |
| 2026-04-22 16:34 | 33.43468 | -116.08299 | 23555 ft | 414 kts | 238° |
| 2026-04-22 16:34 | 33.41825 | -116.11126 | 22985 ft | 412 kts | 238° |
| 2026-04-22 16:35 | 33.40191 | -116.13934 | 22505 ft | 410 kts | 237° |
| 2026-04-22 16:35 | 33.38569 | -116.16721 | 21993 ft | 407 kts | 237° |
| 2026-04-22 16:35 | 33.36960 | -116.19491 | 21505 ft | 404 kts | 237° |
| 2026-04-22 16:35 | 33.35343 | -116.22234 | 21014 ft | 403 kts | 236° |
| 2026-04-22 16:36 | 33.33454 | -116.24721 | 20500 ft | 406 kts | 224° |
| 2026-04-22 16:36 | 33.31125 | -116.26570 | 20035 ft | 411 kts | 212° |
| 2026-04-22 16:36 | 33.28565 | -116.28106 | 19530 ft | 411 kts | 210° |
| 2026-04-22 16:36 | 33.25992 | -116.29591 | 19025 ft | 409 kts | 210° |
| 2026-04-22 16:37 | 33.23428 | -116.31075 | 18514 ft | 407 kts | 210° |
| 2026-04-22 16:37 | 33.20889 | -116.32550 | 17982 ft | 405 kts | 210° |
| 2026-04-22 16:37 | 33.18377 | -116.34014 | 17337 ft | 403 kts | 210° |
| 2026-04-22 16:37 | 33.15859 | -116.35482 | 16754 ft | 399 kts | 210° |
| 2026-04-22 16:38 | 33.13368 | -116.36936 | 16269 ft | 398 kts | 210° |
| 2026-04-22 16:38 | 33.10886 | -116.38384 | 15808 ft | 395 kts | 210° |
| 2026-04-22 16:38 | 33.08454 | -116.39803 | 15332 ft | 392 kts | 210° |
| 2026-04-22 16:38 | 33.06036 | -116.41213 | 15074 ft | 379 kts | 210° |
| 2026-04-22 16:39 | 33.03709 | -116.42567 | 14818 ft | 365 kts | 210° |
| 2026-04-22 16:39 | 33.01471 | -116.43884 | 14581 ft | 352 kts | 211° |
| 2026-04-22 16:39 | 32.99490 | -116.45469 | 14360 ft | 336 kts | 222° |
| 2026-04-22 16:39 | 32.97723 | -116.47222 | 14121 ft | 324 kts | 224° |
| 2026-04-22 16:40 | 32.96039 | -116.48926 | 13789 ft | 309 kts | 223° |
| 2026-04-22 16:40 | 32.94439 | -116.50544 | 13197 ft | 296 kts | 224° |
| 2026-04-22 16:40 | 32.91335 | -116.53705 | 11937 ft | 292 kts | 224° |
| 2026-04-22 16:41 | 32.89811 | -116.55249 | 11604 ft | 286 kts | 224° |
| 2026-04-22 16:41 | 32.88299 | -116.56775 | 10989 ft | 281 kts | 224° |
| 2026-04-22 16:41 | 32.86813 | -116.58269 | 10748 ft | 280 kts | 224° |
| 2026-04-22 16:41 | 32.85328 | -116.59765 | 10494 ft | 279 kts | 224° |
| 2026-04-22 16:42 | 32.83851 | -116.61256 | 10143 ft | 278 kts | 224° |
| 2026-04-22 16:42 | 32.82391 | -116.62730 | 9635 ft | 280 kts | 223° |
| 2026-04-22 16:42 | 32.80909 | -116.64220 | 9197 ft | 278 kts | 224° |
| 2026-04-22 16:42 | 32.79436 | -116.65702 | 8846 ft | 277 kts | 224° |
| 2026-04-22 16:43 | 32.77985 | -116.67199 | 8498 ft | 275 kts | 227° |
| 2026-04-22 16:43 | 32.76819 | -116.68966 | 8178 ft | 271 kts | 241° |
| 2026-04-22 16:43 | 32.75879 | -116.70897 | 7823 ft | 270 kts | 244° |
| 2026-04-22 16:43 | 32.74970 | -116.72844 | 7514 ft | 269 kts | 244° |
| 2026-04-22 16:44 | 32.74060 | -116.74786 | 7175 ft | 269 kts | 244° |
| 2026-04-22 16:44 | 32.73149 | -116.76729 | 6852 ft | 269 kts | 243° |
| 2026-04-22 16:44 | 32.72233 | -116.78666 | 6514 ft | 268 kts | 243° |
| 2026-04-22 16:44 | 32.71320 | -116.80595 | 6172 ft | 268 kts | 244° |
| 2026-04-22 16:45 | 32.70511 | -116.82578 | 5859 ft | 264 kts | 251° |
| 2026-04-22 16:45 | 32.69872 | -116.84568 | 5738 ft | 250 kts | 252° |
| 2026-04-22 16:45 | 32.69288 | -116.86440 | 5498 ft | 232 kts | 252° |
| 2026-04-22 16:45 | 32.68747 | -116.88183 | 5298 ft | 222 kts | 252° |
| 2026-04-22 16:46 | 32.68232 | -116.89906 | 5051 ft | 221 kts | 253° |
| 2026-04-22 16:46 | 32.67739 | -116.91604 | 4803 ft | 219 kts | 253° |
| 2026-04-22 16:46 | 32.67344 | -116.93340 | 4503 ft | 217 kts | 265° |
| 2026-04-22 16:46 | 32.67498 | -116.95094 | 4187 ft | 213 kts | 285° |
| 2026-04-22 16:47 | 32.67946 | -116.96779 | 3859 ft | 214 kts | 291° |
| 2026-04-22 16:47 | 32.68430 | -116.98461 | 3539 ft | 212 kts | 287° |
| 2026-04-22 16:47 | 32.68686 | -116.99556 | 3356 ft | 204 kts | 286° |
| 2026-04-22 16:47 | 32.69170 | -117.01656 | 3104 ft | 192 kts | 287° |
| 2026-04-22 16:48 | 32.69527 | -117.03152 | 2911 ft | 184 kts | 287° |
| 2026-04-22 16:48 | 32.69879 | -117.04569 | 2698 ft | 173 kts | 288° |
| 2026-04-22 16:48 | 32.70214 | -117.05905 | 2449 ft | 165 kts | 288° |
| 2026-04-22 16:48 | 32.70518 | -117.07171 | 2187 ft | 158 kts | 288° |
| 2026-04-22 16:49 | 32.70808 | -117.08384 | 1939 ft | 150 kts | 288° |
| 2026-04-22 16:49 | 32.71086 | -117.09539 | 1734 ft | 141 kts | 288° |
| 2026-04-22 16:49 | 32.71349 | -117.10633 | 1504 ft | 135 kts | 287° |
| 2026-04-22 16:49 | 32.71605 | -117.11698 | 1316 ft | 134 kts | 288° |
| 2026-04-22 16:50 | 32.71859 | -117.12753 | 1107 ft | 133 kts | 287° |
| 2026-04-22 16:50 | 32.72115 | -117.13815 | 913 ft | 132 kts | 285° |
| 2026-04-22 16:50 | 32.72363 | -117.14858 | 727 ft | 130 kts | 284° |
| 2026-04-22 16:50 | 32.72610 | -117.15897 | 478 ft | 129 kts | 285° |
| 2026-04-22 16:51 | 32.72861 | -117.16910 | 312 ft | 131 kts | 284° |
| 2026-04-22 16:51 | 32.73114 | -117.17966 | 96 ft | 128 kts | 284° |
| 2026-04-22 16:51 | 32.73271 | -117.18625 | 34 ft | 121 kts | 284° |
| 2026-04-22 16:51 | 32.73519 | -117.19632 | 31 ft | 48 kts | 286° |
| 2026-04-22 16:52 | 32.73594 | -117.19942 | 30 ft | 27 kts | 285° |
| 2026-04-22 16:52 | 32.73642 | -117.20144 | 29 ft | 23 kts | 286° |
| 2026-04-22 16:52 | 32.73669 | -117.20260 | 26 ft | 19 kts | 285° |
| 2026-04-22 16:52 | 32.73664 | -117.20390 | 27 ft | 14 kts | 227° |
| 2026-04-22 16:53 | 32.73602 | -117.20427 | 27 ft | 10 kts | 202° |
| 2026-04-22 16:53 | 32.73542 | -117.20472 | 28 ft | 11 kts | 225° |
| 2026-04-22 16:53 | 32.73496 | -117.20530 | 29 ft | 5 kts | 218° |
| 2026-04-22 16:53 | 32.73462 | -117.20548 | 29 ft | 6 kts | 195° |
| 2026-04-22 16:54 | 32.73416 | -117.20553 | 27 ft | 8 kts | 184° |
| 2026-04-22 16:54 | 32.73372 | -117.20559 | 28 ft | 3 kts | 190° |
| 2026-04-22 16:54 | 32.73347 | -117.20575 | 28 ft | 5 kts | 223° |
| 2026-04-22 16:54 | 32.73335 | -117.20625 | 27 ft | 8 kts | 274° |
| 2026-04-22 16:55 | 32.73341 | -117.20657 | 27 ft | 3 kts | 281° |
| 2026-04-22 16:55 | 32.73334 | -117.20681 | 27 ft | 4 kts | 238° |
| 2026-04-22 16:55 | 32.73312 | -117.20695 | 27 ft | 5 kts | 199° |
| 2026-04-22 16:55 | 32.73269 | -117.20707 | 27 ft | 5 kts | 192° |
| 2026-04-22 16:56 | 32.73259 | -117.20709 | 27 ft | 0 kts | 192° |